createdAt,value
2023-01-03T00:05:34.274Z,10.32
2023-01-03T00:10:35.753Z,8.43
2023-01-03T00:15:38.568Z,12.48
2023-01-03T00:20:40.050Z,10.23
2023-01-03T00:25:41.477Z,11.48
2023-01-03T00:30:42.966Z,9.02
2023-01-03T00:35:44.440Z,8.50
2023-01-03T00:40:45.865Z,8.35
2023-01-03T00:45:47.340Z,8.02
2023-01-03T00:50:48.790Z,8.95
2023-01-03T00:55:50.228Z,8.95
2023-01-03T01:00:51.657Z,9.60
2023-01-03T01:05:53.069Z,10.32
2023-01-03T01:11:03.314Z,14.88
2023-01-03T01:16:06.417Z,9.90
2023-01-03T01:21:08.993Z,11.75
2023-01-03T01:26:14.674Z,6.63
2023-01-03T01:31:17.761Z,9.75
2023-01-03T01:36:23.643Z,9.75
2023-01-03T01:41:44.537Z,10.32
2023-01-03T01:46:46.117Z,10.88
2023-01-03T01:51:47.658Z,9.93
2023-01-03T01:56:51.313Z,8.40
2023-01-03T02:01:53.293Z,10.50
2023-01-03T02:06:55.616Z,9.40
2023-01-03T02:12:24.813Z,10.60
2023-01-03T02:17:29.162Z,11.15
2023-01-03T02:22:45.822Z,8.70
2023-01-03T02:27:56.528Z,6.63
2023-01-03T02:33:00.927Z,11.60
2023-01-03T02:38:07.606Z,9.10
2023-01-03T02:43:29.237Z,9.73
2023-01-03T02:48:49.651Z,11.35
2023-01-03T02:53:51.228Z,9.48
2023-01-03T02:58:58.941Z,7.35
2023-01-03T03:04:01.587Z,8.85
2023-01-03T03:09:03.707Z,9.02
2023-01-03T03:14:12.343Z,11.73
2023-01-03T03:19:49.501Z,7.90
2023-01-03T03:24:51.210Z,9.77
2023-01-03T03:29:54.722Z,10.98
2023-01-03T03:34:57.263Z,9.57
2023-01-03T03:40:17.234Z,10.02
2023-01-03T03:45:24.294Z,9.57
2023-01-03T03:50:31.664Z,9.48
2023-01-03T03:55:38.937Z,8.55
2023-01-03T04:00:41.688Z,11.20
2023-01-03T04:05:46.089Z,9.50
2023-01-03T04:10:47.547Z,11.80
2023-01-03T04:15:48.976Z,10.45
2023-01-03T04:20:50.532Z,17.80
2023-01-03T04:25:52.057Z,18.60
2023-01-03T04:30:53.494Z,19.20
2023-01-03T04:35:54.945Z,21.05
2023-01-03T04:40:56.371Z,23.65
2023-01-03T04:45:57.871Z,24.50
2023-01-03T04:50:59.601Z,25.10
2023-01-03T04:56:01.159Z,25.50
2023-01-03T05:01:03.444Z,27.92
2023-01-03T05:06:07.218Z,26.75
2023-01-03T05:11:08.738Z,25.70
2023-01-03T05:16:12.227Z,27.67
2023-01-03T05:21:36.089Z,27.60
2023-01-03T05:26:38.986Z,29.33
2023-01-03T05:31:40.599Z,28.08
2023-01-03T05:36:42.150Z,30.08
2023-01-03T05:42:01.543Z,29.40
2023-01-03T05:47:04.030Z,29.77
2023-01-03T05:52:05.874Z,28.15
2023-01-03T05:57:07.303Z,32.78
2023-01-03T06:02:08.867Z,29.08
2023-01-03T06:07:10.400Z,32.53
2023-01-03T06:12:11.846Z,32.63
2023-01-03T06:17:32.132Z,36.85
2023-01-03T06:22:33.532Z,36.70
2023-01-03T06:27:35.062Z,32.85
2023-01-03T06:32:36.510Z,30.30
2023-01-03T06:37:38.050Z,28.70
2023-01-03T06:42:39.554Z,27.85
2023-01-03T06:47:59.774Z,28.92
2023-01-03T06:58:14.787Z,31.63
2023-01-03T07:03:16.307Z,30.35
2023-01-03T07:08:17.930Z,34.47
2023-01-03T07:13:38.093Z,35.45
2023-01-03T07:23:40.937Z,38.92
2023-01-03T07:28:42.337Z,35.60
2023-01-03T07:33:45.206Z,43.28
2023-01-03T07:38:46.818Z,42.85
2023-01-03T07:43:49.227Z,43.40
2023-01-03T07:48:51.833Z,49.97
2023-01-03T07:53:53.609Z,54.45
2023-01-03T07:58:55.820Z,51.85
2023-01-03T08:03:57.262Z,51.70
2023-01-03T08:09:17.641Z,62.40
2023-01-03T08:14:23.648Z,56.50
2023-01-03T08:19:27.445Z,61.95
2023-01-03T08:24:28.886Z,71.03
2023-01-03T08:29:30.421Z,64.15
2023-01-03T08:34:33.994Z,70.32
2023-01-03T08:39:39.214Z,62.42
2023-01-03T08:44:41.182Z,64.93
2023-01-03T08:49:42.816Z,53.97
2023-01-03T08:54:44.401Z,54.90
2023-01-03T08:59:45.852Z,53.92
2023-01-03T09:04:47.343Z,46.47
2023-01-03T09:09:48.881Z,43.38
2023-01-03T09:14:51.010Z,49.70
2023-01-03T09:19:52.548Z,47.83
2023-01-03T09:24:55.624Z,50.50
2023-01-03T09:29:57.074Z,52.13
2023-01-03T09:34:58.507Z,46.13
2023-01-03T09:39:59.904Z,42.75
2023-01-03T09:50:35.293Z,41.05
2023-01-03T09:56:03.595Z,38.75
2023-01-03T10:01:34.825Z,39.20
2023-01-03T10:06:43.697Z,31.63
2023-01-03T10:11:54.976Z,33.58
2023-01-03T10:17:21.150Z,33.55
2023-01-03T10:22:25.599Z,31.45
2023-01-03T10:27:27.924Z,38.40
2023-01-03T10:32:49.426Z,34.00
2023-01-03T10:37:52.742Z,36.70
2023-01-03T10:42:55.543Z,40.05
2023-01-03T10:48:00.647Z,36.63
2023-01-03T10:53:06.559Z,34.90
2023-01-03T10:58:20.024Z,41.08
2023-01-03T11:03:23.362Z,44.80
2023-01-03T11:08:37.832Z,42.05
2023-01-03T11:13:41.162Z,40.42
2023-01-03T11:18:43.470Z,44.95
2023-01-03T11:24:06.115Z,40.63
2023-01-03T11:29:13.074Z,39.60
2023-01-03T11:34:24.270Z,45.90
2023-01-03T11:39:28.591Z,43.28
2023-01-03T11:44:35.896Z,45.95
2023-01-03T11:49:50.199Z,48.33
2023-01-03T11:54:57.679Z,42.63
2023-01-03T12:00:09.151Z,40.22
2023-01-03T12:05:28.892Z,44.67
2023-01-03T12:10:53.702Z,44.55
2023-01-03T12:16:14.111Z,46.40
2023-01-03T12:21:20.782Z,46.05
2023-01-03T12:26:23.567Z,45.03
2023-01-03T12:31:33.024Z,48.00
2023-01-03T12:36:34.610Z,44.58
2023-01-03T12:41:43.486Z,50.55
2023-01-03T12:46:48.514Z,47.83
2023-01-03T12:51:50.082Z,42.78
2023-01-03T12:56:54.249Z,46.15
2023-01-03T13:01:59.258Z,44.05
2023-01-03T13:07:12.610Z,42.28
2023-01-03T13:12:15.693Z,47.72
2023-01-03T13:17:18.577Z,43.63
2023-01-03T13:22:20.027Z,48.00
2023-01-03T13:27:25.284Z,43.10
2023-01-03T13:32:31.597Z,42.95
2023-01-03T13:37:46.871Z,38.35
2023-01-03T13:42:49.416Z,33.78
2023-01-03T13:47:52.197Z,33.20
2023-01-03T13:53:04.330Z,29.67
2023-01-03T13:58:24.170Z,30.88
2023-01-03T14:03:53.145Z,29.60
2023-01-03T14:09:13.114Z,34.47
2023-01-03T14:14:16.563Z,33.45
2023-01-03T14:19:33.974Z,27.08
2023-01-03T14:24:35.597Z,31.50
2023-01-03T14:29:38.365Z,31.10
2023-01-03T14:34:41.200Z,30.35
2023-01-03T14:39:55.511Z,36.08
2023-01-03T14:44:58.269Z,28.48
2023-01-03T14:50:00.004Z,27.55
2023-01-03T14:55:04.438Z,28.88
2023-01-03T15:00:08.681Z,27.30
2023-01-03T15:05:29.513Z,26.83
2023-01-03T15:10:32.487Z,21.38
2023-01-03T15:15:36.696Z,25.70
2023-01-03T15:20:39.261Z,22.02
2023-01-03T15:25:41.761Z,22.70
2023-01-03T15:30:47.953Z,22.52
2023-01-03T15:35:50.859Z,20.23
2023-01-03T15:40:52.546Z,22.05
2023-01-03T15:46:01.441Z,20.65
2023-01-03T15:51:03.906Z,26.90
2023-01-03T15:56:05.320Z,24.67
2023-01-03T16:01:07.491Z,24.88
2023-01-03T16:06:09.043Z,23.95
2023-01-03T16:11:19.562Z,21.70
2023-01-03T16:16:24.193Z,22.70
2023-01-03T16:21:25.828Z,20.02
2023-01-03T16:26:27.278Z,24.52
2023-01-03T16:31:31.315Z,25.08
2023-01-03T16:36:34.638Z,18.13
2023-01-03T16:41:36.065Z,21.67
2023-01-03T16:46:38.493Z,22.30
2023-01-03T16:51:46.761Z,21.63
2023-01-03T16:56:50.459Z,17.65
2023-01-03T17:01:52.024Z,19.73
2023-01-03T17:06:53.593Z,23.35
2023-01-03T17:11:55.176Z,18.90
2023-01-03T17:16:58.086Z,18.23
2023-01-03T17:21:59.729Z,18.77
2023-01-03T17:27:04.510Z,19.60
2023-01-03T17:32:11.274Z,16.17
2023-01-03T17:37:15.892Z,19.02
2023-01-03T17:42:17.579Z,17.73
2023-01-03T17:47:41.205Z,19.92
2023-01-03T17:52:42.727Z,18.38
2023-01-03T17:57:44.230Z,20.33
2023-01-03T18:02:46.320Z,19.58
2023-01-03T18:07:48.697Z,19.27
2023-01-03T18:12:50.197Z,18.63
2023-01-03T18:17:52.603Z,17.50
2023-01-03T18:22:54.416Z,15.07
2023-01-03T18:28:02.386Z,17.35
2023-01-03T18:33:04.479Z,19.27
2023-01-03T18:38:06.133Z,17.55
2023-01-03T18:43:13.006Z,16.48
2023-01-03T18:48:16.301Z,17.55
2023-01-03T18:53:25.728Z,18.88
2023-01-03T18:58:32.430Z,19.42
2023-01-03T19:03:34.752Z,24.55
2023-01-03T19:08:36.406Z,16.90
2023-01-03T19:13:51.729Z,18.60
2023-01-03T19:18:53.488Z,21.08
2023-01-03T19:23:58.260Z,20.35
2023-01-03T19:29:01.899Z,21.67
2023-01-03T19:34:03.374Z,17.25
2023-01-03T19:39:05.255Z,23.48
2023-01-03T19:44:08.053Z,19.33
2023-01-03T19:49:14.368Z,18.90
2023-01-03T19:54:15.943Z,20.48
2023-01-03T19:59:26.600Z,16.85
2023-01-03T20:04:28.173Z,17.55
2023-01-03T20:09:29.748Z,20.88
2023-01-03T20:14:31.230Z,19.95
2023-01-03T20:19:32.677Z,16.88
2023-01-03T20:24:34.209Z,18.10
2023-01-03T20:29:35.657Z,15.63
2023-01-03T20:34:37.795Z,16.25
2023-01-03T20:39:39.260Z,20.67
2023-01-03T20:44:40.661Z,16.45
2023-01-03T20:49:42.635Z,17.75
2023-01-03T20:54:44.147Z,14.98
2023-01-03T20:59:45.607Z,19.35
2023-01-03T21:04:47.098Z,16.25
2023-01-03T21:09:48.519Z,13.80
2023-01-03T21:14:50.025Z,18.17
2023-01-03T21:19:51.449Z,16.90
2023-01-03T21:24:57.526Z,18.83
2023-01-03T21:29:59.415Z,17.67
2023-01-03T21:35:00.884Z,18.58
2023-01-03T21:40:02.362Z,13.90
2023-01-03T21:45:03.866Z,16.33
2023-01-03T21:50:06.018Z,17.52
2023-01-03T21:55:07.797Z,20.73
2023-01-03T22:00:11.704Z,15.77
2023-01-03T22:05:13.195Z,14.23
2023-01-03T22:10:18.896Z,19.45
2023-01-03T22:15:21.159Z,15.30
2023-01-03T22:20:24.844Z,17.08
2023-01-03T22:25:26.309Z,13.18
2023-01-03T22:30:27.815Z,14.23
2023-01-03T22:35:29.270Z,12.07
2023-01-03T22:40:30.667Z,15.85
2023-01-03T22:45:32.146Z,14.32
2023-01-03T22:50:33.673Z,16.70
2023-01-03T22:55:35.215Z,11.75
2023-01-03T23:00:36.928Z,15.85
2023-01-03T23:05:38.323Z,13.02
2023-01-03T23:10:39.834Z,16.42
2023-01-03T23:15:41.324Z,11.48
2023-01-03T23:20:48.818Z,15.88
2023-01-03T23:25:50.245Z,13.27
2023-01-03T23:30:51.730Z,11.82
2023-01-03T23:35:53.239Z,12.77
2023-01-03T23:40:54.671Z,17.38
2023-01-03T23:45:57.799Z,12.63
2023-01-03T23:51:03.108Z,13.77
2023-01-03T23:56:08.412Z,14.57
